sensor_id;sensor_type;location;lat;lon;timestamp;temperature;humidity
59007;DHT22;44792;52.760;6.726;2023-07-22T00:00:00;15.10;99.90
59007;DHT22;44792;52.760;6.726;2023-07-22T00:02:25;15.10;99.90
59007;DHT22;44792;52.760;6.726;2023-07-22T00:04:51;15.10;99.90
59007;DHT22;44792;52.760;6.726;2023-07-22T00:07:17;15.10;99.90
59007;DHT22;44792;52.760;6.726;2023-07-22T00:09:43;15.00;99.90
59007;DHT22;44792;52.760;6.726;2023-07-22T00:12:10;15.00;99.90
59007;DHT22;44792;52.760;6.726;2023-07-22T00:14:39;15.00;99.90
59007;DHT22;44792;52.760;6.726;2023-07-22T00:17:05;15.00;99.90
59007;DHT22;44792;52.760;6.726;2023-07-22T00:19:31;15.10;99.90
59007;DHT22;44792;52.760;6.726;2023-07-22T00:21:57;15.00;99.90
59007;DHT22;44792;52.760;6.726;2023-07-22T00:24:23;15.00;99.90
59007;DHT22;44792;52.760;6.726;2023-07-22T00:26:49;15.00;99.90
59007;DHT22;44792;52.760;6.726;2023-07-22T00:29:15;15.00;99.90
59007;DHT22;44792;52.760;6.726;2023-07-22T00:31:42;15.00;99.90
59007;DHT22;44792;52.760;6.726;2023-07-22T00:34:08;14.90;99.90
59007;DHT22;44792;52.760;6.726;2023-07-22T00:36:33;14.90;99.90
59007;DHT22;44792;52.760;6.726;2023-07-22T00:38:59;14.80;99.90
59007;DHT22;44792;52.760;6.726;2023-07-22T00:41:27;14.80;99.90
59007;DHT22;44792;52.760;6.726;2023-07-22T00:43:52;14.90;99.90
59007;DHT22;44792;52.760;6.726;2023-07-22T00:46:18;14.80;99.90
59007;DHT22;44792;52.760;6.726;2023-07-22T00:48:44;14.80;99.90
59007;DHT22;44792;52.760;6.726;2023-07-22T00:51:10;14.80;99.90
59007;DHT22;44792;52.760;6.726;2023-07-22T00:53:36;14.70;99.90
59007;DHT22;44792;52.760;6.726;2023-07-22T00:56:02;14.60;99.90
59007;DHT22;44792;52.760;6.726;2023-07-22T00:58:28;14.60;99.90
59007;DHT22;44792;52.760;6.726;2023-07-22T01:00:54;14.60;99.90
59007;DHT22;44792;52.760;6.726;2023-07-22T01:03:20;14.60;99.90
59007;DHT22;44792;52.760;6.726;2023-07-22T01:05:47;14.60;99.90
59007;DHT22;44792;52.760;6.726;2023-07-22T01:08:13;14.50;99.90
59007;DHT22;44792;52.760;6.726;2023-07-22T01:10:39;14.50;99.90
59007;DHT22;44792;52.760;6.726;2023-07-22T01:13:05;14.40;99.90
59007;DHT22;44792;52.760;6.726;2023-07-22T01:15:31;14.40;99.90
59007;DHT22;44792;52.760;6.726;2023-07-22T01:17:58;14.40;99.90
59007;DHT22;44792;52.760;6.726;2023-07-22T01:20:28;14.40;99.90
59007;DHT22;44792;52.760;6.726;2023-07-22T01:22:54;14.50;99.90
59007;DHT22;44792;52.760;6.726;2023-07-22T01:25:21;14.40;99.90
59007;DHT22;44792;52.760;6.726;2023-07-22T01:27:48;14.40;99.90
59007;DHT22;44792;52.760;6.726;2023-07-22T01:30:13;14.40;99.90
59007;DHT22;44792;52.760;6.726;2023-07-22T01:32:40;14.40;99.90
59007;DHT22;44792;52.760;6.726;2023-07-22T01:35:06;14.40;99.90
59007;DHT22;44792;52.760;6.726;2023-07-22T01:37:33;14.40;99.90
59007;DHT22;44792;52.760;6.726;2023-07-22T01:39:59;14.40;99.90
59007;DHT22;44792;52.760;6.726;2023-07-22T01:42:25;14.50;99.90
59007;DHT22;44792;52.760;6.726;2023-07-22T01:44:51;14.50;99.90
59007;DHT22;44792;52.760;6.726;2023-07-22T01:47:17;14.50;99.90
59007;DHT22;44792;52.760;6.726;2023-07-22T01:49:44;14.40;99.90
59007;DHT22;44792;52.760;6.726;2023-07-22T01:52:10;14.40;99.90
59007;DHT22;44792;52.760;6.726;2023-07-22T01:54:35;14.40;99.90
59007;DHT22;44792;52.760;6.726;2023-07-22T01:57:01;14.40;99.90
59007;DHT22;44792;52.760;6.726;2023-07-22T01:59:27;14.40;99.90
59007;DHT22;44792;52.760;6.726;2023-07-22T02:01:52;14.40;99.90
59007;DHT22;44792;52.760;6.726;2023-07-22T02:04:18;14.40;99.90
59007;DHT22;44792;52.760;6.726;2023-07-22T02:06:44;14.40;99.90
59007;DHT22;44792;52.760;6.726;2023-07-22T02:09:10;14.40;99.90
59007;DHT22;44792;52.760;6.726;2023-07-22T02:11:38;14.40;99.90
59007;DHT22;44792;52.760;6.726;2023-07-22T02:14:04;14.40;99.90
59007;DHT22;44792;52.760;6.726;2023-07-22T02:16:35;14.40;99.90
59007;DHT22;44792;52.760;6.726;2023-07-22T02:19:04;14.30;99.90
59007;DHT22;44792;52.760;6.726;2023-07-22T02:21:30;14.30;99.90
59007;DHT22;44792;52.760;6.726;2023-07-22T02:23:56;14.30;99.90
59007;DHT22;44792;52.760;6.726;2023-07-22T02:26:22;14.30;99.90
59007;DHT22;44792;52.760;6.726;2023-07-22T02:28:47;14.30;99.90
59007;DHT22;44792;52.760;6.726;2023-07-22T02:31:13;14.30;99.90
59007;DHT22;44792;52.760;6.726;2023-07-22T02:33:39;14.30;99.90
59007;DHT22;44792;52.760;6.726;2023-07-22T02:36:05;14.30;99.90
59007;DHT22;44792;52.760;6.726;2023-07-22T02:38:31;14.30;99.90
59007;DHT22;44792;52.760;6.726;2023-07-22T02:41:03;14.30;99.90
59007;DHT22;44792;52.760;6.726;2023-07-22T02:43:31;14.30;99.90
59007;DHT22;44792;52.760;6.726;2023-07-22T02:45:57;14.30;99.90
59007;DHT22;44792;52.760;6.726;2023-07-22T02:48:23;14.30;99.90
59007;DHT22;44792;52.760;6.726;2023-07-22T02:50:49;14.30;99.90
59007;DHT22;44792;52.760;6.726;2023-07-22T02:53:15;14.20;99.90
59007;DHT22;44792;52.760;6.726;2023-07-22T02:55:41;14.20;99.90
59007;DHT22;44792;52.760;6.726;2023-07-22T02:58:06;14.30;99.90
59007;DHT22;44792;52.760;6.726;2023-07-22T03:00:32;14.30;99.90
59007;DHT22;44792;52.760;6.726;2023-07-22T03:02:58;14.30;99.90
59007;DHT22;44792;52.760;6.726;2023-07-22T03:05:30;14.20;99.90
59007;DHT22;44792;52.760;6.726;2023-07-22T03:07:56;14.20;99.90
59007;DHT22;44792;52.760;6.726;2023-07-22T03:10:23;14.20;99.90
59007;DHT22;44792;52.760;6.726;2023-07-22T03:12:51;14.20;99.90
59007;DHT22;44792;52.760;6.726;2023-07-22T03:15:21;14.30;99.90
59007;DHT22;44792;52.760;6.726;2023-07-22T03:17:47;14.30;99.90
59007;DHT22;44792;52.760;6.726;2023-07-22T03:20:13;14.30;99.90
59007;DHT22;44792;52.760;6.726;2023-07-22T03:22:43;14.30;99.90
59007;DHT22;44792;52.760;6.726;2023-07-22T03:25:13;14.30;99.90
59007;DHT22;44792;52.760;6.726;2023-07-22T03:27:40;14.30;99.90
59007;DHT22;44792;52.760;6.726;2023-07-22T03:30:07;14.30;99.90
59007;DHT22;44792;52.760;6.726;2023-07-22T03:32:33;14.30;99.90
59007;DHT22;44792;52.760;6.726;2023-07-22T03:34:59;14.30;99.90
59007;DHT22;44792;52.760;6.726;2023-07-22T03:37:25;14.20;99.90
59007;DHT22;44792;52.760;6.726;2023-07-22T03:39:51;14.20;99.90
59007;DHT22;44792;52.760;6.726;2023-07-22T03:42:17;14.30;99.90
59007;DHT22;44792;52.760;6.726;2023-07-22T03:44:42;14.30;99.90
59007;DHT22;44792;52.760;6.726;2023-07-22T03:47:08;14.40;99.90
59007;DHT22;44792;52.760;6.726;2023-07-22T03:49:34;14.30;99.90
59007;DHT22;44792;52.760;6.726;2023-07-22T03:51:59;14.30;99.90
59007;DHT22;44792;52.760;6.726;2023-07-22T03:54:25;14.30;99.90
59007;DHT22;44792;52.760;6.726;2023-07-22T03:56:51;14.30;99.90
59007;DHT22;44792;52.760;6.726;2023-07-22T03:59:16;14.30;99.90
59007;DHT22;44792;52.760;6.726;2023-07-22T04:01:42;14.30;99.90
59007;DHT22;44792;52.760;6.726;2023-07-22T04:04:08;14.30;99.90
59007;DHT22;44792;52.760;6.726;2023-07-22T04:06:34;14.40;99.90
59007;DHT22;44792;52.760;6.726;2023-07-22T04:09:00;14.40;99.90
59007;DHT22;44792;52.760;6.726;2023-07-22T04:11:26;14.40;99.90
59007;DHT22;44792;52.760;6.726;2023-07-22T04:13:53;14.40;99.90
59007;DHT22;44792;52.760;6.726;2023-07-22T04:16:19;14.40;99.90
59007;DHT22;44792;52.760;6.726;2023-07-22T04:18:44;14.40;99.90
59007;DHT22;44792;52.760;6.726;2023-07-22T04:21:10;14.50;99.90
59007;DHT22;44792;52.760;6.726;2023-07-22T04:23:36;14.40;99.90
59007;DHT22;44792;52.760;6.726;2023-07-22T04:26:03;14.30;99.90
59007;DHT22;44792;52.760;6.726;2023-07-22T04:28:30;14.40;99.90
59007;DHT22;44792;52.760;6.726;2023-07-22T04:30:57;14.50;99.90
59007;DHT22;44792;52.760;6.726;2023-07-22T04:33:24;14.40;99.90
59007;DHT22;44792;52.760;6.726;2023-07-22T04:35:52;14.40;99.90
59007;DHT22;44792;52.760;6.726;2023-07-22T04:38:18;14.50;99.90
59007;DHT22;44792;52.760;6.726;2023-07-22T04:40:44;14.50;99.90
59007;DHT22;44792;52.760;6.726;2023-07-22T04:43:10;14.50;99.90
59007;DHT22;44792;52.760;6.726;2023-07-22T04:45:36;14.50;99.90
59007;DHT22;44792;52.760;6.726;2023-07-22T04:48:02;14.50;99.90
59007;DHT22;44792;52.760;6.726;2023-07-22T04:50:27;14.50;99.90
59007;DHT22;44792;52.760;6.726;2023-07-22T04:52:54;14.50;99.90
59007;DHT22;44792;52.760;6.726;2023-07-22T04:55:20;14.60;99.90
59007;DHT22;44792;52.760;6.726;2023-07-22T04:57:46;14.60;99.90
59007;DHT22;44792;52.760;6.726;2023-07-22T05:00:12;14.60;99.90
59007;DHT22;44792;52.760;6.726;2023-07-22T05:02:42;14.60;99.90
59007;DHT22;44792;52.760;6.726;2023-07-22T05:05:12;14.70;99.90
59007;DHT22;44792;52.760;6.726;2023-07-22T05:07:37;14.70;99.90
59007;DHT22;44792;52.760;6.726;2023-07-22T05:10:03;14.70;99.90
59007;DHT22;44792;52.760;6.726;2023-07-22T05:12:29;14.70;99.90
59007;DHT22;44792;52.760;6.726;2023-07-22T05:14:55;14.60;99.90
59007;DHT22;44792;52.760;6.726;2023-07-22T05:17:20;14.60;99.90
59007;DHT22;44792;52.760;6.726;2023-07-22T05:19:46;14.60;99.90
59007;DHT22;44792;52.760;6.726;2023-07-22T05:22:14;14.70;99.90
59007;DHT22;44792;52.760;6.726;2023-07-22T05:24:40;14.70;99.90
59007;DHT22;44792;52.760;6.726;2023-07-22T05:27:06;14.70;99.90
59007;DHT22;44792;52.760;6.726;2023-07-22T05:29:31;14.70;99.90
59007;DHT22;44792;52.760;6.726;2023-07-22T05:31:57;14.70;99.90
59007;DHT22;44792;52.760;6.726;2023-07-22T05:34:23;14.70;99.90
59007;DHT22;44792;52.760;6.726;2023-07-22T05:36:48;14.70;99.90
59007;DHT22;44792;52.760;6.726;2023-07-22T05:39:14;14.70;99.90
59007;DHT22;44792;52.760;6.726;2023-07-22T05:41:43;14.70;99.90
59007;DHT22;44792;52.760;6.726;2023-07-22T05:44:08;14.70;99.90
59007;DHT22;44792;52.760;6.726;2023-07-22T05:46:34;14.70;99.90
59007;DHT22;44792;52.760;6.726;2023-07-22T05:49:00;14.70;99.90
59007;DHT22;44792;52.760;6.726;2023-07-22T05:51:26;14.70;99.90
59007;DHT22;44792;52.760;6.726;2023-07-22T05:53:52;14.70;99.90
59007;DHT22;44792;52.760;6.726;2023-07-22T05:56:17;14.70;99.90
59007;DHT22;44792;52.760;6.726;2023-07-22T05:58:43;14.80;99.90
59007;DHT22;44792;52.760;6.726;2023-07-22T06:01:09;14.80;99.90
59007;DHT22;44792;52.760;6.726;2023-07-22T06:03:35;14.70;99.90
59007;DHT22;44792;52.760;6.726;2023-07-22T06:06:01;14.80;99.90
59007;DHT22;44792;52.760;6.726;2023-07-22T06:08:27;14.90;99.90
59007;DHT22;44792;52.760;6.726;2023-07-22T06:10:53;14.80;99.90
59007;DHT22;44792;52.760;6.726;2023-07-22T06:13:18;14.90;99.90
59007;DHT22;44792;52.760;6.726;2023-07-22T06:15:44;14.90;99.90
59007;DHT22;44792;52.760;6.726;2023-07-22T06:18:10;14.90;99.90
59007;DHT22;44792;52.760;6.726;2023-07-22T06:20:36;14.90;99.90
59007;DHT22;44792;52.760;6.726;2023-07-22T06:23:02;15.00;99.90
59007;DHT22;44792;52.760;6.726;2023-07-22T06:25:28;14.90;99.90
59007;DHT22;44792;52.760;6.726;2023-07-22T06:27:53;15.00;99.90
59007;DHT22;44792;52.760;6.726;2023-07-22T06:30:20;15.00;99.90
59007;DHT22;44792;52.760;6.726;2023-07-22T06:32:45;15.00;99.90
59007;DHT22;44792;52.760;6.726;2023-07-22T06:35:11;15.10;99.90
59007;DHT22;44792;52.760;6.726;2023-07-22T06:37:37;15.10;99.90
59007;DHT22;44792;52.760;6.726;2023-07-22T06:40:03;15.20;99.90
59007;DHT22;44792;52.760;6.726;2023-07-22T06:42:29;15.20;99.90
59007;DHT22;44792;52.760;6.726;2023-07-22T06:44:55;15.20;99.90
59007;DHT22;44792;52.760;6.726;2023-07-22T06:47:21;15.20;99.90
59007;DHT22;44792;52.760;6.726;2023-07-22T06:49:47;15.20;99.90
59007;DHT22;44792;52.760;6.726;2023-07-22T06:52:12;15.30;99.90
59007;DHT22;44792;52.760;6.726;2023-07-22T06:54:38;15.20;99.90
59007;DHT22;44792;52.760;6.726;2023-07-22T06:57:04;15.20;99.90
59007;DHT22;44792;52.760;6.726;2023-07-22T06:59:31;15.30;99.90
59007;DHT22;44792;52.760;6.726;2023-07-22T07:01:57;15.30;99.90
59007;DHT22;44792;52.760;6.726;2023-07-22T07:04:23;15.40;99.90
59007;DHT22;44792;52.760;6.726;2023-07-22T07:06:52;15.30;99.90
59007;DHT22;44792;52.760;6.726;2023-07-22T07:09:17;15.40;99.90
59007;DHT22;44792;52.760;6.726;2023-07-22T07:11:44;15.80;99.90
59007;DHT22;44792;52.760;6.726;2023-07-22T07:14:09;15.70;99.90
59007;DHT22;44792;52.760;6.726;2023-07-22T07:16:35;15.70;99.90
59007;DHT22;44792;52.760;6.726;2023-07-22T07:19:01;15.80;99.90
59007;DHT22;44792;52.760;6.726;2023-07-22T07:21:27;15.80;99.90
59007;DHT22;44792;52.760;6.726;2023-07-22T07:23:54;15.90;99.90
59007;DHT22;44792;52.760;6.726;2023-07-22T07:26:20;16.00;99.90
59007;DHT22;44792;52.760;6.726;2023-07-22T07:28:47;16.00;99.90
59007;DHT22;44792;52.760;6.726;2023-07-22T07:31:13;16.00;99.90
59007;DHT22;44792;52.760;6.726;2023-07-22T07:33:39;16.10;99.90
59007;DHT22;44792;52.760;6.726;2023-07-22T07:36:05;16.00;99.90
59007;DHT22;44792;52.760;6.726;2023-07-22T07:38:31;16.10;99.90
59007;DHT22;44792;52.760;6.726;2023-07-22T07:41:02;16.20;99.90
59007;DHT22;44792;52.760;6.726;2023-07-22T07:43:28;16.30;99.90
59007;DHT22;44792;52.760;6.726;2023-07-22T07:46:14;16.30;99.90
59007;DHT22;44792;52.760;6.726;2023-07-22T07:48:40;16.30;99.90
59007;DHT22;44792;52.760;6.726;2023-07-22T07:51:06;16.30;99.90
59007;DHT22;44792;52.760;6.726;2023-07-22T07:53:31;16.40;99.90
59007;DHT22;44792;52.760;6.726;2023-07-22T07:55:57;16.40;99.90
59007;DHT22;44792;52.760;6.726;2023-07-22T07:58:23;16.40;99.90
59007;DHT22;44792;52.760;6.726;2023-07-22T08:00:48;16.50;99.90
59007;DHT22;44792;52.760;6.726;2023-07-22T08:03:14;16.60;99.90
59007;DHT22;44792;52.760;6.726;2023-07-22T08:05:40;16.70;99.90
59007;DHT22;44792;52.760;6.726;2023-07-22T08:08:06;16.70;99.90
59007;DHT22;44792;52.760;6.726;2023-07-22T08:10:32;16.70;99.90
59007;DHT22;44792;52.760;6.726;2023-07-22T08:12:57;16.80;99.90
59007;DHT22;44792;52.760;6.726;2023-07-22T08:15:23;16.90;99.90
59007;DHT22;44792;52.760;6.726;2023-07-22T08:17:49;16.90;99.90
59007;DHT22;44792;52.760;6.726;2023-07-22T08:20:15;16.90;99.90
59007;DHT22;44792;52.760;6.726;2023-07-22T08:22:40;17.00;99.90
59007;DHT22;44792;52.760;6.726;2023-07-22T08:25:06;17.10;99.90
59007;DHT22;44792;52.760;6.726;2023-07-22T08:27:33;17.20;99.90
59007;DHT22;44792;52.760;6.726;2023-07-22T08:29:58;17.20;99.90
59007;DHT22;44792;52.760;6.726;2023-07-22T08:32:24;17.30;99.90
59007;DHT22;44792;52.760;6.726;2023-07-22T08:34:50;17.30;99.90
59007;DHT22;44792;52.760;6.726;2023-07-22T08:37:16;17.40;99.90
59007;DHT22;44792;52.760;6.726;2023-07-22T08:39:42;17.40;99.90
59007;DHT22;44792;52.760;6.726;2023-07-22T08:42:09;17.40;99.90
59007;DHT22;44792;52.760;6.726;2023-07-22T08:44:38;17.50;99.90
59007;DHT22;44792;52.760;6.726;2023-07-22T08:47:08;17.60;99.90
59007;DHT22;44792;52.760;6.726;2023-07-22T08:49:35;17.80;99.90
59007;DHT22;44792;52.760;6.726;2023-07-22T08:52:01;17.90;99.90
59007;DHT22;44792;52.760;6.726;2023-07-22T08:54:27;18.00;99.90
59007;DHT22;44792;52.760;6.726;2023-07-22T08:56:53;18.00;99.90
59007;DHT22;44792;52.760;6.726;2023-07-22T08:59:19;18.10;99.90
59007;DHT22;44792;52.760;6.726;2023-07-22T09:01:47;18.10;99.90
59007;DHT22;44792;52.760;6.726;2023-07-22T09:04:13;18.10;99.90
59007;DHT22;44792;52.760;6.726;2023-07-22T09:06:41;18.10;99.90
59007;DHT22;44792;52.760;6.726;2023-07-22T09:09:08;18.10;99.90
59007;DHT22;44792;52.760;6.726;2023-07-22T09:11:35;18.10;99.90
59007;DHT22;44792;52.760;6.726;2023-07-22T09:14:02;18.10;99.90
59007;DHT22;44792;52.760;6.726;2023-07-22T09:16:30;18.20;99.90
59007;DHT22;44792;52.760;6.726;2023-07-22T09:18:59;18.30;99.90
59007;DHT22;44792;52.760;6.726;2023-07-22T09:21:25;18.40;99.90
59007;DHT22;44792;52.760;6.726;2023-07-22T09:23:51;18.40;99.90
59007;DHT22;44792;52.760;6.726;2023-07-22T09:26:17;18.50;99.90
59007;DHT22;44792;52.760;6.726;2023-07-22T09:28:57;18.50;99.90
59007;DHT22;44792;52.760;6.726;2023-07-22T09:31:25;18.50;99.90
59007;DHT22;44792;52.760;6.726;2023-07-22T09:33:52;18.40;99.90
59007;DHT22;44792;52.760;6.726;2023-07-22T09:36:21;18.30;99.90
59007;DHT22;44792;52.760;6.726;2023-07-22T09:39:13;18.30;99.90
59007;DHT22;44792;52.760;6.726;2023-07-22T09:41:41;18.20;99.90
59007;DHT22;44792;52.760;6.726;2023-07-22T09:44:10;18.10;99.90
59007;DHT22;44792;52.760;6.726;2023-07-22T09:46:36;18.10;99.90
59007;DHT22;44792;52.760;6.726;2023-07-22T09:49:07;18.10;99.90
59007;DHT22;44792;52.760;6.726;2023-07-22T09:51:40;18.00;99.90
59007;DHT22;44792;52.760;6.726;2023-07-22T09:54:06;17.90;99.90
59007;DHT22;44792;52.760;6.726;2023-07-22T09:56:43;17.70;99.90
59007;DHT22;44792;52.760;6.726;2023-07-22T09:59:10;17.60;99.90
59007;DHT22;44792;52.760;6.726;2023-07-22T10:01:38;17.50;99.90
59007;DHT22;44792;52.760;6.726;2023-07-22T10:04:05;17.50;99.90
59007;DHT22;44792;52.760;6.726;2023-07-22T10:06:32;17.30;99.90
59007;DHT22;44792;52.760;6.726;2023-07-22T10:09:05;17.30;99.90
59007;DHT22;44792;52.760;6.726;2023-07-22T10:11:36;17.50;99.90
59007;DHT22;44792;52.760;6.726;2023-07-22T10:14:02;17.50;99.90
59007;DHT22;44792;52.760;6.726;2023-07-22T10:16:29;17.60;99.90
59007;DHT22;44792;52.760;6.726;2023-07-22T10:18:56;17.60;99.90
59007;DHT22;44792;52.760;6.726;2023-07-22T10:21:23;17.70;99.90
59007;DHT22;44792;52.760;6.726;2023-07-22T10:23:50;17.50;99.90
59007;DHT22;44792;52.760;6.726;2023-07-22T10:26:18;17.50;99.90
59007;DHT22;44792;52.760;6.726;2023-07-22T10:28:45;17.40;99.90
59007;DHT22;44792;52.760;6.726;2023-07-22T10:31:12;17.40;99.90
59007;DHT22;44792;52.760;6.726;2023-07-22T10:33:38;17.40;99.90
59007;DHT22;44792;52.760;6.726;2023-07-22T10:36:08;17.40;99.90
59007;DHT22;44792;52.760;6.726;2023-07-22T10:38:35;17.40;99.90
59007;DHT22;44792;52.760;6.726;2023-07-22T10:41:04;17.50;99.90
59007;DHT22;44792;52.760;6.726;2023-07-22T10:43:36;17.50;99.90
59007;DHT22;44792;52.760;6.726;2023-07-22T10:46:12;17.50;99.90
59007;DHT22;44792;52.760;6.726;2023-07-22T10:48:41;17.50;99.90
59007;DHT22;44792;52.760;6.726;2023-07-22T10:51:15;17.40;99.90
59007;DHT22;44792;52.760;6.726;2023-07-22T10:53:46;17.50;99.90
59007;DHT22;44792;52.760;6.726;2023-07-22T10:56:20;17.40;99.90
59007;DHT22;44792;52.760;6.726;2023-07-22T11:09:42;17.30;99.90
59007;DHT22;44792;52.760;6.726;2023-07-22T11:12:17;17.40;99.90
59007;DHT22;44792;52.760;6.726;2023-07-22T11:14:49;17.40;99.90
59007;DHT22;44792;52.760;6.726;2023-07-22T11:17:16;17.50;99.90
59007;DHT22;44792;52.760;6.726;2023-07-22T11:19:43;17.50;99.90
59007;DHT22;44792;52.760;6.726;2023-07-22T11:22:09;17.50;99.90
59007;DHT22;44792;52.760;6.726;2023-07-22T11:24:36;17.50;99.90
59007;DHT22;44792;52.760;6.726;2023-07-22T11:27:07;17.60;99.90
59007;DHT22;44792;52.760;6.726;2023-07-22T11:29:34;17.50;99.90
59007;DHT22;44792;52.760;6.726;2023-07-22T11:32:01;17.50;99.90
59007;DHT22;44792;52.760;6.726;2023-07-22T11:34:27;17.50;99.90
59007;DHT22;44792;52.760;6.726;2023-07-22T11:36:54;17.50;99.90
59007;DHT22;44792;52.760;6.726;2023-07-22T11:39:29;17.50;99.90
59007;DHT22;44792;52.760;6.726;2023-07-22T11:42:00;17.40;99.90
59007;DHT22;44792;52.760;6.726;2023-07-22T11:44:29;17.40;99.90
59007;DHT22;44792;52.760;6.726;2023-07-22T11:47:00;17.30;99.90
59007;DHT22;44792;52.760;6.726;2023-07-22T11:49:39;17.30;99.90
59007;DHT22;44792;52.760;6.726;2023-07-22T11:52:05;17.30;99.90
59007;DHT22;44792;52.760;6.726;2023-07-22T11:54:36;17.30;99.90
59007;DHT22;44792;52.760;6.726;2023-07-22T11:57:18;17.30;99.90
59007;DHT22;44792;52.760;6.726;2023-07-22T11:59:45;17.20;99.90
59007;DHT22;44792;52.760;6.726;2023-07-22T12:02:18;17.30;99.90
59007;DHT22;44792;52.760;6.726;2023-07-22T12:04:55;17.30;99.90
59007;DHT22;44792;52.760;6.726;2023-07-22T12:07:28;17.30;99.90
59007;DHT22;44792;52.760;6.726;2023-07-22T12:09:55;17.30;99.90
59007;DHT22;44792;52.760;6.726;2023-07-22T12:12:32;17.30;99.90
59007;DHT22;44792;52.760;6.726;2023-07-22T12:15:02;17.30;99.90
59007;DHT22;44792;52.760;6.726;2023-07-22T12:17:29;17.30;99.90
59007;DHT22;44792;52.760;6.726;2023-07-22T12:19:58;17.30;99.90
59007;DHT22;44792;52.760;6.726;2023-07-22T12:22:24;17.30;99.90
59007;DHT22;44792;52.760;6.726;2023-07-22T12:24:50;17.30;99.90
59007;DHT22;44792;52.760;6.726;2023-07-22T12:27:15;17.30;99.90
59007;DHT22;44792;52.760;6.726;2023-07-22T12:29:41;17.30;99.90
59007;DHT22;44792;52.760;6.726;2023-07-22T12:32:07;17.30;99.90
59007;DHT22;44792;52.760;6.726;2023-07-22T12:34:33;17.30;99.90
59007;DHT22;44792;52.760;6.726;2023-07-22T12:36:58;17.30;99.90
59007;DHT22;44792;52.760;6.726;2023-07-22T12:39:24;17.30;99.90
59007;DHT22;44792;52.760;6.726;2023-07-22T12:41:50;17.20;99.90
59007;DHT22;44792;52.760;6.726;2023-07-22T12:44:15;17.20;99.90
59007;DHT22;44792;52.760;6.726;2023-07-22T12:46:41;17.10;99.90
59007;DHT22;44792;52.760;6.726;2023-07-22T12:49:08;17.10;99.90
59007;DHT22;44792;52.760;6.726;2023-07-22T12:51:33;17.10;99.90
59007;DHT22;44792;52.760;6.726;2023-07-22T12:53:59;17.00;99.90
59007;DHT22;44792;52.760;6.726;2023-07-22T12:56:25;17.00;99.90
59007;DHT22;44792;52.760;6.726;2023-07-22T12:58:51;17.00;99.90
59007;DHT22;44792;52.760;6.726;2023-07-22T13:01:16;17.00;99.90
59007;DHT22;44792;52.760;6.726;2023-07-22T13:03:42;16.90;99.90
59007;DHT22;44792;52.760;6.726;2023-07-22T13:06:08;16.90;99.90
59007;DHT22;44792;52.760;6.726;2023-07-22T13:08:33;16.80;99.90
59007;DHT22;44792;52.760;6.726;2023-07-22T13:10:59;16.80;99.90
59007;DHT22;44792;52.760;6.726;2023-07-22T13:13:25;16.70;99.90
59007;DHT22;44792;52.760;6.726;2023-07-22T13:15:50;16.70;99.90
59007;DHT22;44792;52.760;6.726;2023-07-22T13:18:16;16.70;99.90
59007;DHT22;44792;52.760;6.726;2023-07-22T13:20:42;16.70;99.90
59007;DHT22;44792;52.760;6.726;2023-07-22T13:23:08;16.60;99.90
59007;DHT22;44792;52.760;6.726;2023-07-22T13:25:34;16.60;99.90
59007;DHT22;44792;52.760;6.726;2023-07-22T13:28:00;16.50;99.90
59007;DHT22;44792;52.760;6.726;2023-07-22T13:30:25;16.50;99.90
59007;DHT22;44792;52.760;6.726;2023-07-22T13:32:51;16.40;99.90
59007;DHT22;44792;52.760;6.726;2023-07-22T13:35:18;16.50;99.90
59007;DHT22;44792;52.760;6.726;2023-07-22T13:37:44;16.50;99.90
59007;DHT22;44792;52.760;6.726;2023-07-22T13:40:10;16.50;99.90
59007;DHT22;44792;52.760;6.726;2023-07-22T13:42:37;16.60;99.90
59007;DHT22;44792;52.760;6.726;2023-07-22T13:45:03;16.50;99.90
59007;DHT22;44792;52.760;6.726;2023-07-22T13:47:29;16.50;99.90
59007;DHT22;44792;52.760;6.726;2023-07-22T13:49:55;16.50;99.90
59007;DHT22;44792;52.760;6.726;2023-07-22T13:52:21;16.60;99.90
59007;DHT22;44792;52.760;6.726;2023-07-22T13:54:46;16.60;99.90
59007;DHT22;44792;52.760;6.726;2023-07-22T13:57:12;16.60;99.90
59007;DHT22;44792;52.760;6.726;2023-07-22T13:59:38;16.60;99.90
59007;DHT22;44792;52.760;6.726;2023-07-22T14:02:04;16.60;99.90
59007;DHT22;44792;52.760;6.726;2023-07-22T14:04:29;16.60;99.90
59007;DHT22;44792;52.760;6.726;2023-07-22T14:06:55;16.70;99.90
59007;DHT22;44792;52.760;6.726;2023-07-22T14:09:21;16.70;99.90
59007;DHT22;44792;52.760;6.726;2023-07-22T14:11:47;16.70;99.90
59007;DHT22;44792;52.760;6.726;2023-07-22T14:14:13;16.70;99.90
59007;DHT22;44792;52.760;6.726;2023-07-22T14:16:38;16.70;99.90
59007;DHT22;44792;52.760;6.726;2023-07-22T14:19:04;16.70;99.90
59007;DHT22;44792;52.760;6.726;2023-07-22T14:21:30;16.70;99.90
59007;DHT22;44792;52.760;6.726;2023-07-22T14:23:55;16.70;99.90
59007;DHT22;44792;52.760;6.726;2023-07-22T14:26:21;16.60;99.90
59007;DHT22;44792;52.760;6.726;2023-07-22T14:28:47;16.60;99.90
59007;DHT22;44792;52.760;6.726;2023-07-22T14:31:12;16.70;99.90
59007;DHT22;44792;52.760;6.726;2023-07-22T14:33:38;16.70;99.90
59007;DHT22;44792;52.760;6.726;2023-07-22T14:36:04;16.60;99.90
59007;DHT22;44792;52.760;6.726;2023-07-22T14:38:30;16.60;99.90
59007;DHT22;44792;52.760;6.726;2023-07-22T14:40:55;16.60;99.90
59007;DHT22;44792;52.760;6.726;2023-07-22T14:43:21;16.60;99.90
59007;DHT22;44792;52.760;6.726;2023-07-22T14:45:47;16.60;99.90
59007;DHT22;44792;52.760;6.726;2023-07-22T14:48:13;16.70;99.90
59007;DHT22;44792;52.760;6.726;2023-07-22T14:50:39;16.70;99.90
59007;DHT22;44792;52.760;6.726;2023-07-22T14:53:04;16.60;99.90
59007;DHT22;44792;52.760;6.726;2023-07-22T14:55:30;16.60;99.90
59007;DHT22;44792;52.760;6.726;2023-07-22T14:57:56;16.70;99.90
59007;DHT22;44792;52.760;6.726;2023-07-22T15:00:21;16.60;99.90
59007;DHT22;44792;52.760;6.726;2023-07-22T15:02:48;16.60;99.90
59007;DHT22;44792;52.760;6.726;2023-07-22T15:05:14;16.70;99.90
59007;DHT22;44792;52.760;6.726;2023-07-22T15:07:39;16.60;99.90
59007;DHT22;44792;52.760;6.726;2023-07-22T15:10:06;16.70;99.90
59007;DHT22;44792;52.760;6.726;2023-07-22T15:12:32;16.70;99.90
59007;DHT22;44792;52.760;6.726;2023-07-22T15:14:58;16.60;99.90
59007;DHT22;44792;52.760;6.726;2023-07-22T15:17:26;16.60;99.90
59007;DHT22;44792;52.760;6.726;2023-07-22T15:19:52;16.70;99.90
59007;DHT22;44792;52.760;6.726;2023-07-22T15:22:18;16.70;99.90
59007;DHT22;44792;52.760;6.726;2023-07-22T15:24:43;16.70;99.90
59007;DHT22;44792;52.760;6.726;2023-07-22T15:27:09;16.70;99.90
59007;DHT22;44792;52.760;6.726;2023-07-22T15:29:35;16.70;99.90
59007;DHT22;44792;52.760;6.726;2023-07-22T15:32:00;16.70;99.90
59007;DHT22;44792;52.760;6.726;2023-07-22T15:34:29;16.70;99.90
59007;DHT22;44792;52.760;6.726;2023-07-22T15:36:55;16.70;99.90